createdAt,value
2018-11-12T00:00:43.449Z,101031.99
2018-11-12T00:03:12.732Z,101030.93
2018-11-12T00:05:42.032Z,101041.91
2018-11-12T00:08:11.618Z,101042.73
2018-11-12T00:10:40.942Z,101055.70
2018-11-12T00:13:10.263Z,101071.48
2018-11-12T00:15:39.707Z,101065.87
2018-11-12T00:18:09.047Z,101056.77
2018-11-12T00:20:39.019Z,101063.72
2018-11-12T00:23:08.359Z,101079.70
2018-11-12T00:25:37.712Z,101093.58
2018-11-12T00:28:07.023Z,101093.73
2018-11-12T00:30:36.487Z,101090.23
2018-11-12T00:33:05.945Z,101089.72
2018-11-12T00:35:35.219Z,101097.53
2018-11-12T00:38:04.559Z,101100.59
2018-11-12T00:40:34.004Z,101102.27
2018-11-12T00:43:03.354Z,101097.94
2018-11-12T00:45:32.819Z,101103.31
2018-11-12T00:48:02.134Z,101121.11
2018-11-12T00:50:31.458Z,101133.16
2018-11-12T00:53:01.108Z,101136.00
2018-11-12T00:55:30.403Z,101140.27
2018-11-12T00:57:59.674Z,101147.39
2018-11-12T01:00:29.038Z,101156.39
2018-11-12T01:02:58.318Z,101157.79
2018-11-12T01:05:27.658Z,101167.33
2018-11-12T01:07:57.044Z,101167.62
2018-11-12T01:10:26.357Z,101161.17
2018-11-12T01:12:55.721Z,101173.77
2018-11-12T01:15:25.406Z,101166.16
2018-11-12T01:17:54.738Z,101175.56
2018-11-12T01:20:24.027Z,101174.06
2018-11-12T01:22:53.338Z,101171.30
2018-11-12T01:25:22.763Z,101167.36
2018-11-12T01:27:52.070Z,101181.00
2018-11-12T01:30:21.398Z,101176.20
2018-11-12T01:32:50.682Z,101172.75
2018-11-12T01:35:19.937Z,101169.00
2018-11-12T01:37:49.460Z,101159.05
2018-11-12T01:40:19.336Z,101174.62
2018-11-12T01:42:48.652Z,101173.16
2018-11-12T01:45:19.268Z,101193.84
2018-11-12T01:47:49.591Z,101189.59
2018-11-12T01:50:19.590Z,101184.29
2018-11-12T01:52:49.545Z,101187.19
2018-11-12T01:55:19.551Z,101179.64
2018-11-12T01:57:50.436Z,101174.34
2018-11-12T02:00:22.842Z,101177.39
2018-11-12T02:02:53.096Z,101176.05
2018-11-12T02:05:22.405Z,101176.66
2018-11-12T02:07:51.729Z,101171.80
2018-11-12T02:10:21.012Z,101181.73
2018-11-12T02:12:50.306Z,101182.23
2018-11-12T02:15:20.802Z,101188.73
2018-11-12T02:17:50.711Z,101198.11
2018-11-12T02:20:21.016Z,101194.91
2018-11-12T02:22:51.256Z,101193.19
2018-11-12T02:25:20.900Z,101194.86
2018-11-12T02:27:50.199Z,101192.47
2018-11-12T02:30:24.977Z,101215.12
2018-11-12T02:32:54.293Z,101212.20
2018-11-12T02:35:23.595Z,101217.97
2018-11-12T02:37:53.336Z,101221.09
2018-11-12T02:40:22.690Z,101216.70
2018-11-12T02:42:52.011Z,101221.47
2018-11-12T02:45:21.320Z,101228.59
2018-11-12T02:47:50.612Z,101222.61
2018-11-12T02:50:20.017Z,101210.05
2018-11-12T02:52:49.604Z,101195.91
2018-11-12T02:55:19.108Z,101193.69
2018-11-12T02:57:48.764Z,101187.88
2018-11-12T03:00:23.587Z,101195.56
2018-11-12T03:02:53.186Z,101191.11
2018-11-12T03:05:22.686Z,101202.16
2018-11-12T03:07:52.114Z,101223.11
2018-11-12T03:10:24.007Z,101214.09
2018-11-12T03:12:53.616Z,101210.19
2018-11-12T03:15:23.218Z,101217.68
2018-11-12T03:17:53.339Z,101223.31
2018-11-12T03:20:24.248Z,101212.56
2018-11-12T03:22:53.917Z,101214.94
2018-11-12T03:25:23.468Z,101222.61
2018-11-12T03:27:53.241Z,101228.88
2018-11-12T03:30:23.403Z,101220.39
2018-11-12T03:32:53.668Z,101219.20
2018-11-12T03:35:23.226Z,101223.42
2018-11-12T03:37:52.678Z,101234.66
2018-11-12T03:40:24.295Z,101243.22
2018-11-12T03:42:53.987Z,101244.07
2018-11-12T03:45:24.608Z,101248.86
2018-11-12T03:47:54.430Z,101251.76
2018-11-12T03:50:25.125Z,101233.41
2018-11-12T03:52:54.756Z,101237.31
2018-11-12T03:55:24.636Z,101244.28
2018-11-12T03:57:54.218Z,101251.43
2018-11-12T04:00:29.304Z,101247.51
2018-11-12T04:02:59.410Z,101243.61
2018-11-12T04:05:28.827Z,101242.59
2018-11-12T04:07:58.581Z,101248.88
2018-11-12T04:10:27.910Z,101249.39
2018-11-12T04:12:57.216Z,101250.74
2018-11-12T04:15:27.292Z,101246.67
2018-11-12T04:17:57.006Z,101235.80
2018-11-12T04:20:26.574Z,101233.92
2018-11-12T04:23:02.366Z,101237.16
2018-11-12T04:25:33.116Z,101251.44
2018-11-12T04:28:02.746Z,101260.62
2018-11-12T04:30:32.246Z,101254.84
2018-11-12T04:33:01.723Z,101256.87
2018-11-12T04:35:31.206Z,101244.30
2018-11-12T04:38:00.978Z,101244.63
2018-11-12T04:40:30.230Z,101244.63
2018-11-12T04:42:59.733Z,101253.14
2018-11-12T04:45:29.032Z,101243.95
2018-11-12T04:47:58.275Z,101240.53
2018-11-12T04:50:28.386Z,101241.19
2018-11-12T04:52:57.702Z,101241.36
2018-11-12T04:55:27.011Z,101236.61
2018-11-12T04:57:56.247Z,101243.75
2018-11-12T05:00:27.033Z,101247.83
2018-11-12T05:02:56.401Z,101244.25
2018-11-12T05:05:27.360Z,101246.29
2018-11-12T05:07:56.722Z,101253.28
2018-11-12T05:10:27.080Z,101254.28
2018-11-12T05:12:56.827Z,101253.09
2018-11-12T05:15:26.739Z,101251.41
2018-11-12T05:17:55.997Z,101261.64
2018-11-12T05:20:28.899Z,101269.45
2018-11-12T05:22:58.501Z,101283.74
2018-11-12T05:25:27.973Z,101300.23
2018-11-12T05:27:57.276Z,101296.13
2018-11-12T05:30:27.773Z,101295.65
2018-11-12T05:32:57.673Z,101283.23
2018-11-12T05:35:28.105Z,101287.15
2018-11-12T05:37:57.473Z,101291.73
2018-11-12T05:40:28.251Z,101293.42
2018-11-12T05:42:57.673Z,101294.28
2018-11-12T05:45:28.188Z,101306.88
2018-11-12T05:47:57.826Z,101306.20
2018-11-12T05:50:30.127Z,101309.59
2018-11-12T05:53:03.869Z,101311.81
2018-11-12T05:55:34.049Z,101318.77
2018-11-12T05:58:03.706Z,101321.14
2018-11-12T06:00:35.331Z,101320.81
2018-11-12T06:03:04.669Z,101320.45
2018-11-12T06:05:34.930Z,101313.97
2018-11-12T06:08:04.326Z,101313.14
2018-11-12T06:10:34.474Z,101317.23
2018-11-12T06:13:03.811Z,101331.70
2018-11-12T06:15:33.150Z,101321.83
2018-11-12T06:18:02.450Z,101327.95
2018-11-12T06:20:32.909Z,101340.55
2018-11-12T06:23:02.978Z,101337.50
2018-11-12T06:25:36.233Z,101341.91
2018-11-12T06:28:05.696Z,101338.33
2018-11-12T06:30:36.357Z,101336.26
2018-11-12T06:33:05.775Z,101336.64
2018-11-12T06:35:35.066Z,101336.82
2018-11-12T06:38:04.376Z,101332.05
2018-11-12T06:40:34.178Z,101335.11
2018-11-12T06:43:03.610Z,101324.55
2018-11-12T06:45:32.875Z,101331.00
2018-11-12T06:48:02.709Z,101339.16
2018-11-12T06:50:33.289Z,101330.41
2018-11-12T06:53:03.422Z,101322.78
2018-11-12T06:55:32.647Z,101318.36
2018-11-12T06:58:01.922Z,101321.47
2018-11-12T07:00:32.886Z,101319.04
2018-11-12T07:03:02.202Z,101307.86
2018-11-12T07:05:32.300Z,101303.10
2018-11-12T07:08:01.620Z,101313.66
2018-11-12T07:10:31.398Z,101309.92
2018-11-12T07:13:01.073Z,101308.39
2018-11-12T07:15:30.547Z,101305.16
2018-11-12T07:18:00.031Z,101302.26
2018-11-12T07:20:30.192Z,101302.09
2018-11-12T07:22:59.833Z,101298.70
2018-11-12T07:25:30.192Z,101297.02
2018-11-12T07:27:59.780Z,101301.41
2018-11-12T07:30:29.676Z,101301.92
2018-11-12T07:32:59.614Z,101297.34
2018-11-12T07:35:28.972Z,101293.08
2018-11-12T07:37:58.531Z,101293.77
2018-11-12T07:40:27.815Z,101284.59
2018-11-12T07:42:57.101Z,101274.22
2018-11-12T07:45:27.935Z,101269.12
2018-11-12T07:47:57.998Z,101274.22
2018-11-12T07:50:28.706Z,101264.69
2018-11-12T07:52:58.061Z,101253.81
2018-11-12T07:55:28.513Z,101256.87
2018-11-12T07:57:58.617Z,101247.67
2018-11-12T08:00:35.736Z,101256.17
2018-11-12T08:03:07.636Z,101253.80
2018-11-12T08:05:37.488Z,101252.11
2018-11-12T08:08:07.407Z,101255.86
2018-11-12T08:10:36.749Z,101254.33
2018-11-12T08:13:06.527Z,101259.42
2018-11-12T08:15:35.813Z,101263.17
2018-11-12T08:18:05.319Z,101260.95
2018-11-12T08:20:35.471Z,101260.28
2018-11-12T08:23:04.875Z,101264.36
2018-11-12T08:25:34.197Z,101260.95
2018-11-12T08:28:03.547Z,101258.41
2018-11-12T08:30:32.942Z,101251.09
2018-11-12T08:33:02.347Z,101243.94
2018-11-12T08:35:31.599Z,101245.80
2018-11-12T08:38:00.934Z,101248.87
2018-11-12T08:40:30.903Z,101246.67
2018-11-12T08:43:00.178Z,101243.72
2018-11-12T08:45:29.480Z,101243.90
2018-11-12T08:47:59.017Z,101247.31
2018-11-12T08:50:28.770Z,101248.98
2018-11-12T08:52:58.589Z,101244.75
2018-11-12T08:55:29.299Z,101257.81
2018-11-12T08:58:01.915Z,101262.75
2018-11-12T09:00:31.408Z,101261.25
2018-11-12T09:03:00.672Z,101260.93
2018-11-12T09:05:31.070Z,101269.62
2018-11-12T09:08:01.871Z,101273.18
2018-11-12T09:10:32.471Z,101269.58
2018-11-12T09:13:01.825Z,101276.08
2018-11-12T09:15:31.219Z,101283.72
2018-11-12T09:18:00.903Z,101291.88
2018-11-12T09:20:30.351Z,101294.11
2018-11-12T09:23:00.371Z,101293.60
2018-11-12T09:25:29.755Z,101294.63
2018-11-12T09:27:59.060Z,101293.77
2018-11-12T09:30:29.583Z,101286.79
2018-11-12T09:32:59.168Z,101287.31
2018-11-12T09:35:29.618Z,101292.08
2018-11-12T09:37:59.802Z,101290.05
2018-11-12T09:40:31.691Z,101286.63
2018-11-12T09:43:01.522Z,101273.87
2018-11-12T09:45:30.893Z,101263.33
2018-11-12T09:48:00.253Z,101261.95
2018-11-12T09:50:30.040Z,101262.31
2018-11-12T09:53:00.412Z,101252.11
2018-11-12T09:55:30.851Z,101248.03
2018-11-12T09:58:03.016Z,101255.34
2018-11-12T10:00:32.509Z,101243.27
2018-11-12T10:03:02.487Z,101241.22
2018-11-12T10:05:33.152Z,101235.80
2018-11-12T10:08:07.696Z,101230.69
2018-11-12T10:10:42.320Z,101231.20
2018-11-12T10:13:13.589Z,101230.85
2018-11-12T10:15:43.518Z,101226.60
2018-11-12T10:20:39.735Z,101234.77
2018-11-12T10:23:09.268Z,101230.67
2018-11-12T10:25:38.628Z,101227.95
2018-11-12T10:28:07.972Z,101236.75
2018-11-12T10:30:37.486Z,101261.09
2018-11-12T10:33:07.112Z,101219.75
2018-11-12T10:35:36.486Z,101246.27
2018-11-12T10:38:06.663Z,101257.84
2018-11-12T10:40:36.077Z,101248.84
2018-11-12T10:43:05.503Z,101260.23
2018-11-12T10:45:34.822Z,101212.63
2018-11-12T10:48:04.251Z,101252.42
2018-11-12T10:50:33.696Z,101233.02
2018-11-12T10:53:03.174Z,101231.78
2018-11-12T10:55:32.732Z,101228.50
2018-11-12T10:58:01.934Z,101207.13
2018-11-12T11:00:39.051Z,101208.61
2018-11-12T11:03:17.479Z,101202.95
2018-11-12T11:05:48.371Z,101193.20
2018-11-12T11:08:17.835Z,101196.78
2018-11-12T11:10:47.221Z,101204.98
2018-11-12T11:13:16.595Z,101190.69
2018-11-12T11:15:45.985Z,101195.55
2018-11-12T11:18:15.334Z,101178.56
2018-11-12T11:20:45.250Z,101191.17
2018-11-12T11:23:14.647Z,101187.05
2018-11-12T11:25:43.984Z,101178.45
2018-11-12T11:28:13.244Z,101145.80
2018-11-12T11:30:42.651Z,101146.20
2018-11-12T11:33:11.962Z,101151.80
2018-11-12T11:35:41.305Z,101154.02
2018-11-12T11:38:10.647Z,101144.14
2018-11-12T11:40:39.970Z,101146.55
2018-11-12T11:43:09.383Z,101137.66
2018-11-12T11:45:38.669Z,101116.64
2018-11-12T11:48:08.308Z,101122.92
2018-11-12T11:50:37.725Z,101127.48
2018-11-12T11:53:07.238Z,101139.16
2018-11-12T11:55:36.559Z,101138.67
2018-11-12T11:58:05.904Z,101133.83
2018-11-12T12:00:35.461Z,101134.66
2018-11-12T12:03:04.934Z,101117.23
2018-11-12T12:05:34.302Z,101117.31
2018-11-12T12:08:03.627Z,101119.70
2018-11-12T12:10:32.922Z,101108.91
2018-11-12T12:13:02.213Z,101107.84
2018-11-12T12:15:31.502Z,101092.77
2018-11-12T12:18:00.801Z,101074.88
2018-11-12T12:20:30.241Z,101078.38
2018-11-12T12:22:59.541Z,101076.97
2018-11-12T12:25:28.899Z,101079.45
2018-11-12T12:27:58.397Z,101093.38
2018-11-12T12:30:28.784Z,101085.32
2018-11-12T12:32:58.978Z,101092.81
2018-11-12T12:35:28.398Z,101089.03
2018-11-12T12:37:57.811Z,101073.94
2018-11-12T12:40:27.181Z,101061.23
2018-11-12T12:42:56.444Z,101048.27
2018-11-12T12:45:26.941Z,101056.87
2018-11-12T12:47:57.612Z,101055.17
2018-11-12T12:50:26.917Z,101057.31
2018-11-12T12:52:56.267Z,101061.03
2018-11-12T12:55:25.639Z,101063.63
2018-11-12T12:57:54.997Z,101071.05
2018-11-12T13:00:27.571Z,101059.58
2018-11-12T13:02:57.426Z,101062.99
2018-11-12T13:05:27.022Z,101059.66
2018-11-12T13:07:56.629Z,101053.95
2018-11-12T13:10:26.026Z,101058.17
2018-11-12T13:12:55.370Z,101043.57
2018-11-12T13:15:24.707Z,101042.67
2018-11-12T13:17:54.010Z,101052.84
2018-11-12T13:20:24.906Z,101038.38
2018-11-12T13:22:54.215Z,101037.63
2018-11-12T13:25:23.497Z,101037.00
2018-11-12T13:27:52.947Z,101033.31
2018-11-12T13:30:23.877Z,101037.34
2018-11-12T13:32:53.463Z,101028.09
2018-11-12T13:35:24.261Z,101034.28
2018-11-12T13:37:53.598Z,101033.47
2018-11-12T13:40:24.192Z,101033.61
2018-11-12T13:42:55.203Z,101037.05
2018-11-12T13:45:25.491Z,101036.43
2018-11-12T13:47:55.254Z,101037.73
2018-11-12T13:50:26.266Z,101040.32
2018-11-12T13:52:56.113Z,101030.10
2018-11-12T13:55:25.895Z,101024.64
2018-11-12T13:57:55.232Z,101024.30
2018-11-12T14:00:26.264Z,101023.22
2018-11-12T14:02:56.146Z,101023.50
2018-11-12T14:05:26.204Z,101020.45
2018-11-12T14:07:55.535Z,101021.05
2018-11-12T14:10:26.779Z,101025.16
2018-11-12T14:12:57.119Z,101026.31
2018-11-12T14:15:26.894Z,101029.20
2018-11-12T14:17:57.080Z,101031.07
2018-11-12T14:20:27.182Z,101035.75
2018-11-12T14:22:56.981Z,101033.70
2018-11-12T14:25:27.202Z,101028.81
2018-11-12T14:27:57.355Z,101025.70
2018-11-12T14:30:30.623Z,101019.23
2018-11-12T14:33:00.327Z,101020.36
2018-11-12T14:35:30.592Z,101018.91
2018-11-12T14:38:00.208Z,101026.31
2018-11-12T14:40:29.955Z,101023.66
2018-11-12T14:42:59.331Z,101035.36
2018-11-12T14:45:29.062Z,101032.26
2018-11-12T14:47:58.343Z,101027.14
2018-11-12T14:50:27.718Z,101028.20
2018-11-12T14:52:57.302Z,101009.63
2018-11-12T14:55:26.593Z,101013.47
2018-11-12T14:57:55.955Z,101013.09
2018-11-12T15:00:27.244Z,101007.91
2018-11-12T15:02:56.779Z,101010.33
2018-11-12T15:05:26.721Z,101025.42
2018-11-12T15:07:56.057Z,101020.67
2018-11-12T15:10:25.432Z,101018.25
2018-11-12T15:12:54.799Z,101025.16
2018-11-12T15:15:24.670Z,101018.08
2018-11-12T15:17:54.033Z,101018.09
2018-11-12T15:20:23.375Z,101021.06
2018-11-12T15:22:52.743Z,101010.70
2018-11-12T15:25:24.394Z,101010.70
2018-11-12T15:27:53.771Z,101002.77
2018-11-12T15:30:24.390Z,100991.33
2018-11-12T15:32:55.436Z,100995.56
2018-11-12T15:35:24.767Z,100992.40
2018-11-12T15:37:54.174Z,100986.80
2018-11-12T15:40:23.501Z,100980.07
2018-11-12T15:42:52.831Z,100992.50
2018-11-12T15:45:23.424Z,100995.38
2018-11-12T15:47:53.091Z,100998.05
2018-11-12T15:50:26.758Z,101005.87
2018-11-12T15:52:56.511Z,100996.80
2018-11-12T15:55:26.318Z,100999.72
2018-11-12T15:57:55.916Z,101008.58
2018-11-12T16:00:25.193Z,101007.14
2018-11-12T16:02:54.711Z,100998.69
2018-11-12T16:05:24.069Z,101008.22
2018-11-12T16:07:53.433Z,101002.73
2018-11-12T16:10:23.118Z,101007.34
2018-11-12T16:12:52.418Z,100992.17
2018-11-12T16:15:23.401Z,100985.43
2018-11-12T16:17:52.755Z,100990.95
2018-11-12T16:20:27.640Z,100997.64
2018-11-12T16:22:58.054Z,100996.27
2018-11-12T16:25:27.999Z,100995.42
2018-11-12T16:27:57.356Z,101001.16
2018-11-12T16:30:26.825Z,101009.23
2018-11-12T16:32:56.723Z,101004.22
2018-11-12T16:35:26.361Z,100997.64
2018-11-12T16:37:56.246Z,101009.55
2018-11-12T16:40:25.785Z,101007.73
2018-11-12T16:42:55.230Z,101021.27
2018-11-12T16:45:24.620Z,101027.58
2018-11-12T16:47:54.187Z,101025.11
2018-11-12T16:50:23.560Z,101041.77
2018-11-12T16:52:52.868Z,101049.58
2018-11-12T16:55:23.715Z,101055.64
2018-11-12T16:57:53.038Z,101064.88
2018-11-12T17:00:23.736Z,101058.50
2018-11-12T17:02:53.213Z,101076.27
2018-11-12T17:05:23.930Z,101091.51
2018-11-12T17:07:53.335Z,101072.27
2018-11-12T17:10:24.417Z,101068.00
2018-11-12T17:12:53.721Z,101097.52
2018-11-12T17:15:23.251Z,101106.70
2018-11-12T17:17:52.568Z,101115.37
2018-11-12T17:20:22.656Z,101131.66
2018-11-12T17:22:52.024Z,101137.08
2018-11-12T17:25:21.442Z,101129.72
2018-11-12T17:27:50.933Z,101135.45
2018-11-12T17:30:21.422Z,101147.77
2018-11-12T17:32:52.078Z,101155.41
2018-11-12T17:35:22.371Z,101154.63
2018-11-12T17:37:51.746Z,101164.00
2018-11-12T17:40:26.407Z,101157.42
2018-11-12T17:42:56.883Z,101166.00
2018-11-12T17:45:27.489Z,101173.25
2018-11-12T17:47:58.482Z,101181.78
2018-11-12T17:50:28.048Z,101180.28
2018-11-12T17:52:57.355Z,101181.75
2018-11-12T17:55:27.021Z,101185.95
2018-11-12T17:57:56.349Z,101200.86
2018-11-12T18:00:42.014Z,101194.17
2018-11-12T18:03:11.368Z,101194.02
2018-11-12T18:05:41.000Z,101206.16
2018-11-12T18:08:10.346Z,101198.77
2018-11-12T18:10:39.867Z,101210.16
2018-11-12T18:13:09.192Z,101200.08
2018-11-12T18:15:38.569Z,101210.02
2018-11-12T18:18:07.980Z,101219.31
2018-11-12T18:20:37.340Z,101231.49
2018-11-12T18:23:06.790Z,101242.39
2018-11-12T18:25:36.132Z,101251.62
2018-11-12T18:28:05.780Z,101257.82
2018-11-12T18:30:35.315Z,101266.67
2018-11-12T18:33:05.764Z,101272.84
2018-11-12T18:35:35.447Z,101285.09
2018-11-12T18:38:04.891Z,101287.67
2018-11-12T18:40:35.183Z,101292.62
2018-11-12T18:43:05.880Z,101301.99
2018-11-12T18:45:35.243Z,101311.34
2018-11-12T18:48:05.446Z,101314.48
2018-11-12T18:50:34.787Z,101312.75
2018-11-12T18:53:04.174Z,101322.09
2018-11-12T18:55:37.774Z,101321.50
2018-11-12T18:58:07.241Z,101338.87
2018-11-12T19:00:39.573Z,101328.41
2018-11-12T19:03:08.959Z,101323.44
2018-11-12T19:05:38.360Z,101330.29
2018-11-12T19:08:07.891Z,101338.16
2018-11-12T19:10:44.023Z,101332.72
2018-11-12T19:13:13.445Z,101337.31
2018-11-12T19:15:43.212Z,101357.59
2018-11-12T19:18:14.172Z,101366.28
2018-11-12T19:20:44.182Z,101364.86
2018-11-12T19:23:13.598Z,101365.30
2018-11-12T19:25:43.329Z,101377.95
2018-11-12T19:28:12.687Z,101388.06
2018-11-12T19:30:42.203Z,101398.97
2018-11-12T19:33:11.639Z,101404.72
2018-11-12T19:35:41.042Z,101389.34
2018-11-12T19:38:10.415Z,101396.73
2018-11-12T19:40:39.796Z,101401.34
2018-11-12T19:43:09.204Z,101412.84
2018-11-12T19:45:38.499Z,101416.75
2018-11-12T19:48:08.984Z,101425.92
2018-11-12T19:50:39.436Z,101412.28
2018-11-12T19:53:08.827Z,101417.98
2018-11-12T19:55:38.621Z,101411.66
2018-11-12T19:58:07.997Z,101417.81
2018-11-12T20:00:37.444Z,101439.26
2018-11-12T20:03:06.874Z,101448.47
2018-11-12T20:05:36.437Z,101438.22
2018-11-12T20:08:05.885Z,101438.36
2018-11-12T20:10:35.440Z,101445.38
2018-11-12T20:13:04.852Z,101440.95
2018-11-12T20:15:34.571Z,101445.19
2018-11-12T20:18:04.104Z,101453.07
2018-11-12T20:20:34.277Z,101452.72
2018-11-12T20:23:04.239Z,101458.36
2018-11-12T20:25:33.668Z,101463.95
2018-11-12T20:28:03.128Z,101453.03
2018-11-12T20:30:36.504Z,101454.56
2018-11-12T20:33:06.458Z,101470.08
2018-11-12T20:35:35.962Z,101471.59
2018-11-12T20:38:05.464Z,101469.88
2018-11-12T20:40:34.956Z,101473.67
2018-11-12T20:43:04.324Z,101469.95
2018-11-12T20:45:33.725Z,101458.87
2018-11-12T20:48:03.112Z,101447.30
2018-11-12T20:50:32.425Z,101436.91
2018-11-12T20:53:02.287Z,101464.84
2018-11-12T20:55:31.769Z,101487.16
2018-11-12T20:58:01.202Z,101494.83
2018-11-12T21:00:30.792Z,101483.23
2018-11-12T21:03:00.095Z,101503.52
2018-11-12T21:05:30.640Z,101505.38
2018-11-12T21:08:00.011Z,101526.16
2018-11-12T21:10:29.338Z,101527.18
2018-11-12T21:12:58.938Z,101534.85
2018-11-12T21:15:28.549Z,101535.37
2018-11-12T21:17:57.947Z,101529.91
2018-11-12T21:20:27.863Z,101522.08
2018-11-12T21:22:57.466Z,101530.59
2018-11-12T21:25:27.668Z,101529.91
2018-11-12T21:27:57.140Z,101524.13
2018-11-12T21:30:27.960Z,101519.52
2018-11-12T21:32:57.362Z,101527.52
2018-11-12T21:35:33.483Z,101523.43
2018-11-12T21:38:03.052Z,101524.45
2018-11-12T21:40:32.654Z,101529.91
2018-11-12T21:43:02.137Z,101522.08
2018-11-12T21:45:31.734Z,101513.55
2018-11-12T21:48:01.241Z,101506.58
2018-11-12T21:50:30.954Z,101505.38
2018-11-12T21:53:00.450Z,101515.61
2018-11-12T21:55:29.841Z,101521.06
2018-11-12T21:57:59.450Z,101522.77
2018-11-12T22:00:29.162Z,101528.21
2018-11-12T22:03:00.100Z,101531.28
2018-11-12T22:05:30.287Z,101544.73
2018-11-12T22:07:59.564Z,101543.38
2018-11-12T22:10:28.980Z,101549.67
2018-11-12T22:12:58.387Z,101544.05
2018-11-12T22:15:27.691Z,101532.64
2018-11-12T22:17:56.992Z,101528.55
2018-11-12T22:20:28.559Z,101534.85
2018-11-12T22:22:58.554Z,101547.30
2018-11-12T22:25:28.291Z,101558.19
2018-11-12T22:27:58.027Z,101551.38
2018-11-12T22:30:28.195Z,101552.41
2018-11-12T22:32:57.907Z,101551.03
2018-11-12T22:35:27.259Z,101553.09
2018-11-12T22:37:56.638Z,101557.69
2018-11-12T22:40:25.954Z,101567.22
2018-11-12T22:42:55.454Z,101555.97
2018-11-12T22:45:25.678Z,101550.01
2018-11-12T22:47:55.091Z,101541.78
2018-11-12T22:50:24.394Z,101549.52
2018-11-12T22:52:53.919Z,101556.28
2018-11-12T22:55:23.257Z,101565.37
2018-11-12T22:57:52.641Z,101569.64
2018-11-12T23:00:28.308Z,101571.67
2018-11-12T23:02:59.356Z,101580.80
2018-11-12T23:05:29.019Z,101579.45
2018-11-12T23:07:58.349Z,101576.70
2018-11-12T23:10:27.623Z,101582.34
2018-11-12T23:12:56.913Z,101580.17
2018-11-12T23:15:26.270Z,101577.62
2018-11-12T23:17:55.955Z,101565.52
2018-11-12T23:20:27.093Z,101572.98
2018-11-12T23:22:56.703Z,101570.93
2018-11-12T23:25:26.192Z,101570.95
2018-11-12T23:27:55.502Z,101573.11
2018-11-12T23:30:25.779Z,101580.59
2018-11-12T23:32:55.114Z,101594.53
2018-11-12T23:35:25.675Z,101595.20
2018-11-12T23:37:55.147Z,101601.38
2018-11-12T23:40:24.507Z,101612.56
2018-11-12T23:42:53.937Z,101613.97
2018-11-12T23:45:25.094Z,101607.44
2018-11-12T23:47:54.401Z,101589.13
2018-11-12T23:50:23.797Z,101595.15
2018-11-12T23:52:53.757Z,101604.19
2018-11-12T23:55:23.197Z,101604.63
2018-11-12T23:57:52.539Z,101608.82
